Time;durP1;ratioP1;P1;durP2;ratioP2;P2;SDS_P1;SDS_P2;PMS_P1;PMS_P2;Temp;Humidity;BMP_temperature;BMP_pressure;BME280_temperature;BME280_humidity;BME280_pressure;Samples;Min_cycle;Max_cycle;Signal;HPM_P1;HPM_P2
2022/04/21 00:00:17;;;;;;;2.53;1.60;;;;;;;;;;5051044;28;20066;-72
2022/04/21 00:02:43;;;;;;;2.20;2.00;;;;;;;;;;5051081;28;20021;-73
2022/04/21 00:05:10;;;;;;;1.73;1.63;;;;;;;;;;5051031;28;20107;-72
2022/04/21 00:07:35;;;;;;;2.38;1.88;;;;;;;;;;5050824;28;20094;-72
2022/04/21 00:10:02;;;;;;;2.55;1.83;;;;;;;;;;5050620;28;20021;-72
2022/04/21 00:12:28;;;;;;;4.25;2.22;;;;;;;;;;5050985;28;20360;-72
2022/04/21 00:14:54;;;;;;;3.40;2.00;;;;;;;;;;5050763;28;20107;-72
2022/04/21 00:17:19;;;;;;;3.72;1.70;;;;;;;;;;5050709;28;20103;-72
2022/04/21 00:19:44;;;;;;;3.88;2.10;;;;;;;;;;5050537;28;20485;-72
2022/04/21 00:24:54;;;;;;;2.90;1.73;;;;;;;;;;5050674;28;20044;-72
2022/04/21 00:27:19;;;;;;;4.35;2.15;;;;;;;;;;5050698;28;20021;-72
2022/04/21 00:29:44;;;;;;;3.63;2.00;;;;;;;;;;5050322;28;20036;-71
2022/04/21 00:32:10;;;;;;;3.33;1.88;;;;;;;;;;5050473;28;20493;-72
2022/04/21 00:34:36;;;;;;;2.95;2.47;;;;;;;;;;5050469;28;20029;-73
2022/04/21 00:37:02;;;;;;;2.15;1.90;;;;;;;;;;5050349;28;20024;-72
2022/04/21 00:39:27;;;;;;;2.92;2.10;;;;;;;;;;5050440;28;20025;-72
2022/04/21 00:41:57;;;;;;;4.13;2.03;;;;;;;;;;5050072;28;20029;-72
2022/04/21 00:44:23;;;;;;;2.88;2.28;;;;;;;;;;5049958;28;20115;-72
2022/04/21 00:46:48;;;;;;;3.33;2.20;;;;;;;;;;5050367;28;20104;-73
2022/04/21 00:49:16;;;;;;;3.80;2.00;;;;;;;;;;5050494;28;20098;-73
2022/04/21 00:51:41;;;;;;;2.33;2.13;;;;;;;;;;5050202;28;20482;-72
2022/04/21 00:54:06;;;;;;;4.07;2.20;;;;;;;;;;5050273;28;20036;-72
2022/04/21 00:56:32;;;;;;;2.65;2.28;;;;;;;;;;5050346;28;20028;-72
2022/04/21 00:58:57;;;;;;;3.50;2.35;;;;;;;;;;5049887;28;20025;-72
2022/04/21 01:04:07;;;;;;;10.93;4.13;;;;;;;;;;5049903;28;20490;-72
2022/04/21 01:06:33;;;;;;;9.57;3.63;;;;;;;;;;5050280;28;20033;-72
2022/04/21 01:08:59;;;;;;;5.53;3.20;;;;;;;;;;5049658;28;20112;-72
2022/04/21 01:11:24;;;;;;;7.88;2.78;;;;;;;;;;5049939;28;20044;-72
2022/04/21 01:13:50;;;;;;;4.60;2.40;;;;;;;;;;5049852;28;20025;-73
2022/04/21 01:16:15;;;;;;;3.78;2.72;;;;;;;;;;5050029;28;20017;-72
2022/04/21 01:18:41;;;;;;;3.58;2.40;;;;;;;;;;5049560;28;20048;-72
2022/04/21 01:21:07;;;;;;;4.07;2.70;;;;;;;;;;5049912;28;20114;-72
2022/04/21 01:23:32;;;;;;;4.68;2.20;;;;;;;;;;5049710;28;20033;-72
2022/04/21 01:25:58;;;;;;;4.15;2.35;;;;;;;;;;5049790;28;20036;-72
2022/04/21 01:28:25;;;;;;;3.97;2.45;;;;;;;;;;5049505;28;20427;-73
2022/04/21 01:30:57;;;;;;;2.67;1.88;;;;;;;;;;5050031;28;20370;-73
2022/04/21 01:33:22;;;;;;;2.75;2.05;;;;;;;;;;5049622;28;20035;-72
2022/04/21 01:35:48;;;;;;;6.00;1.90;;;;;;;;;;5049780;28;20029;-72
2022/04/21 01:41:09;;;;;;;2.75;2.05;;;;;;;;;;5050098;28;20114;-72
2022/04/21 01:43:34;;;;;;;2.22;1.77;;;;;;;;;;5050122;28;20418;-71
2022/04/21 01:45:59;;;;;;;3.72;2.17;;;;;;;;;;5049779;28;20044;-72
2022/04/21 01:48:25;;;;;;;4.43;1.98;;;;;;;;;;5049867;28;20029;-72
2022/04/21 01:50:50;;;;;;;2.35;1.88;;;;;;;;;;5049848;28;20163;-72
2022/04/21 01:53:16;;;;;;;2.28;2.00;;;;;;;;;;5049982;28;20017;-72
2022/04/21 01:55:41;;;;;;;2.22;1.90;;;;;;;;;;5053518;28;20143;-72
2022/04/21 01:58:06;;;;;;;2.45;2.00;;;;;;;;;;5053558;28;20060;-72
2022/04/21 02:00:32;;;;;;;2.47;2.22;;;;;;;;;;5053214;28;20059;-72
2022/04/21 02:02:57;;;;;;;3.72;2.30;;;;;;;;;;5053173;28;20116;-72
2022/04/21 02:05:23;;;;;;;2.97;2.30;;;;;;;;;;5053592;28;20107;-73
2022/04/21 02:07:48;;;;;;;5.25;3.00;;;;;;;;;;5053053;28;20029;-72
2022/04/21 02:10:15;;;;;;;4.35;2.70;;;;;;;;;;5052949;28;20032;-72
2022/04/21 02:12:41;;;;;;;4.22;3.00;;;;;;;;;;5053090;28;20021;-72
2022/04/21 02:15:07;;;;;;;5.90;3.15;;;;;;;;;;5052946;28;20103;-72
2022/04/21 02:17:33;;;;;;;6.47;3.70;;;;;;;;;;5053012;28;20109;-72
2022/04/21 02:20:00;;;;;;;5.28;3.67;;;;;;;;;;5053354;28;20047;-72
2022/04/21 02:22:25;;;;;;;3.65;2.65;;;;;;;;;;5052950;28;20023;-72
2022/04/21 02:24:51;;;;;;;3.40;2.58;;;;;;;;;;5052816;28;20021;-71
2022/04/21 02:27:16;;;;;;;4.03;2.50;;;;;;;;;;5053401;28;20036;-72
2022/04/21 02:29:41;;;;;;;3.20;2.40;;;;;;;;;;5052415;28;20060;-72
2022/04/21 02:32:07;;;;;;;3.50;2.40;;;;;;;;;;5052797;28;20043;-72
2022/04/21 02:34:32;;;;;;;2.88;2.33;;;;;;;;;;5052777;28;20021;-71
2022/04/21 02:36:58;;;;;;;3.22;2.33;;;;;;;;;;5053026;28;20291;-73
2022/04/21 02:39:24;;;;;;;2.70;2.08;;;;;;;;;;5052412;28;20119;-72
2022/04/21 02:41:50;;;;;;;3.63;2.13;;;;;;;;;;5052715;28;20398;-71
2022/04/21 02:44:15;;;;;;;2.75;2.40;;;;;;;;;;5061373;22;20041;-67
2022/04/21 02:46:40;;;;;;;2.83;2.30;;;;;;;;;;5033137;28;20113;-69
2022/04/21 02:49:06;;;;;;;3.92;2.58;;;;;;;;;;5032749;28;20559;-68
2022/04/21 02:51:34;;;;;;;4.20;2.50;;;;;;;;;;5032864;28;20116;-69
2022/04/21 02:59:28;;;;;;;5.38;2.42;;;;;;;;;;5052356;28;20492;-68
2022/04/21 03:01:53;;;;;;;4.57;2.60;;;;;;;;;;5052282;28;20291;-69
2022/04/21 03:04:18;;;;;;;3.00;2.20;;;;;;;;;;5052440;28;20091;-68
2022/04/21 03:06:44;;;;;;;3.30;2.50;;;;;;;;;;5051651;28;20029;-67
2022/04/21 03:09:09;;;;;;;3.50;2.13;;;;;;;;;;5051806;28;20143;-68
2022/04/21 03:11:34;;;;;;;3.72;2.33;;;;;;;;;;5052122;28;20097;-67
2022/04/21 03:14:00;;;;;;;2.60;2.30;;;;;;;;;;5051982;28;20032;-68
2022/04/21 03:16:25;;;;;;;4.38;2.28;;;;;;;;;;5052114;28;20025;-67
2022/04/21 03:18:50;;;;;;;3.08;2.17;;;;;;;;;;5051732;28;20025;-68
2022/04/21 03:26:43;;;;;;;3.55;2.60;;;;;;;;;;5052136;28;20102;-67
2022/04/21 03:29:09;;;;;;;3.50;2.50;;;;;;;;;;5052936;28;20462;-68
2022/04/21 03:31:35;;;;;;;5.10;2.55;;;;;;;;;;5052465;28;20044;-67
2022/04/21 03:34:02;;;;;;;4.55;2.30;;;;;;;;;;5051553;28;20044;-68
2022/04/21 03:36:27;;;;;;;6.03;2.83;;;;;;;;;;5051762;28;20423;-68
2022/04/21 03:38:53;;;;;;;5.45;2.50;;;;;;;;;;5051455;28;20028;-68
2022/04/21 03:41:18;;;;;;;3.35;2.60;;;;;;;;;;5051818;28;20051;-68
2022/04/21 03:43:43;;;;;;;3.45;2.40;;;;;;;;;;5051344;28;20044;-68
2022/04/21 03:46:08;;;;;;;3.75;2.88;;;;;;;;;;5051394;28;20029;-68
2022/04/21 03:48:35;;;;;;;3.67;2.53;;;;;;;;;;5051129;28;20091;-68
2022/04/21 03:51:01;;;;;;;4.45;2.33;;;;;;;;;;5051589;28;20024;-68
2022/04/21 03:53:26;;;;;;;4.88;2.70;;;;;;;;;;5051252;28;20029;-68
2022/04/21 03:55:52;;;;;;;3.20;2.58;;;;;;;;;;5051196;28;20029;-69
2022/04/21 03:58:17;;;;;;;3.30;2.80;;;;;;;;;;5051313;28;20459;-68
2022/04/21 04:00:43;;;;;;;3.15;2.47;;;;;;;;;;5051175;28;20020;-68
2022/04/21 04:03:08;;;;;;;3.95;2.92;;;;;;;;;;5051095;28;20100;-68
2022/04/21 04:05:40;;;;;;;4.30;2.97;;;;;;;;;;5050887;28;20036;-68
2022/04/21 04:10:52;;;;;;;5.28;2.75;;;;;;;;;;5050915;28;20027;-68
2022/04/21 04:13:22;;;;;;;4.95;2.55;;;;;;;;;;5050866;28;20091;-67
2022/04/21 04:15:49;;;;;;;3.20;2.90;;;;;;;;;;5050731;28;20552;-68
2022/04/21 04:18:15;;;;;;;4.68;2.92;;;;;;;;;;5049671;28;20471;-67
2022/04/21 04:20:41;;;;;;;3.78;2.97;;;;;;;;;;5050711;28;20087;-67
2022/04/21 04:23:06;;;;;;;6.90;2.90;;;;;;;;;;5050666;28;20478;-67
2022/04/21 04:25:32;;;;;;;4.07;2.95;;;;;;;;;;5050662;28;20124;-67
2022/04/21 04:27:57;;;;;;;4.57;2.90;;;;;;;;;;5050453;28;20024;-68
2022/04/21 04:30:22;;;;;;;4.13;3.10;;;;;;;;;;5049204;28;20108;-68
2022/04/21 04:32:48;;;;;;;4.88;3.00;;;;;;;;;;5050483;28;20039;-68
2022/04/21 04:35:13;;;;;;;4.03;2.90;;;;;;;;;;5050633;28;20028;-68
2022/04/21 04:37:39;;;;;;;3.65;2.70;;;;;;;;;;5050697;28;20020;-68
2022/04/21 04:40:05;;;;;;;4.13;2.90;;;;;;;;;;5050290;28;20043;-68
2022/04/21 04:42:30;;;;;;;4.10;3.00;;;;;;;;;;5050504;28;20029;-68
2022/04/21 04:47:41;;;;;;;4.85;3.13;;;;;;;;;;5050218;28;20410;-68
2022/04/21 04:50:10;;;;;;;17.10;7.03;;;;;;;;;;5049972;28;20028;-68
2022/04/21 04:52:36;;;;;;;11.93;7.00;;;;;;;;;;5050199;28;20478;-68
2022/04/21 04:55:02;;;;;;;6.53;3.70;;;;;;;;;;5050300;28;20059;-68
2022/04/21 04:57:27;;;;;;;3.63;3.08;;;;;;;;;;5050007;28;20025;-68
2022/04/21 04:59:52;;;;;;;5.15;4.00;;;;;;;;;;5050196;28;20024;-68
2022/04/21 05:02:20;;;;;;;8.30;3.85;;;;;;;;;;5050086;28;20226;-68
2022/04/21 05:04:46;;;;;;;6.07;3.10;;;;;;;;;;5049969;28;20021;-68
2022/04/21 05:07:12;;;;;;;5.53;3.47;;;;;;;;;;5050065;28;20032;-68
2022/04/21 05:09:38;;;;;;;4.65;3.00;;;;;;;;;;5049715;28;20033;-68
2022/04/21 05:12:03;;;;;;;8.02;4.65;;;;;;;;;;5049903;28;20103;-68
2022/04/21 05:14:29;;;;;;;4.05;3.42;;;;;;;;;;5049927;28;20070;-69
2022/04/21 05:16:54;;;;;;;6.15;3.00;;;;;;;;;;5049860;28;20025;-68
2022/04/21 05:19:20;;;;;;;4.55;2.95;;;;;;;;;;5049630;28;20454;-69
2022/04/21 05:21:47;;;;;;;6.97;4.30;;;;;;;;;;5049871;28;20031;-68
2022/04/21 05:24:13;;;;;;;6.38;3.40;;;;;;;;;;5049911;28;20028;-68
2022/04/21 05:26:40;;;;;;;5.45;3.20;;;;;;;;;;5050066;28;20465;-68
2022/04/21 05:31:55;;;;;;;4.22;3.60;;;;;;;;;;5054136;28;20122;-69
2022/04/21 05:34:21;;;;;;;5.22;3.70;;;;;;;;;;5054091;28;20032;-69
2022/04/21 05:36:47;;;;;;;7.20;3.63;;;;;;;;;;5054228;28;20052;-68
2022/04/21 05:39:13;;;;;;;5.25;3.17;;;;;;;;;;5053499;28;20111;-68
2022/04/21 05:41:39;;;;;;;9.27;3.60;;;;;;;;;;5053702;28;20027;-69
2022/04/21 05:44:06;;;;;;;13.48;3.88;;;;;;;;;;5053454;28;20032;-69
2022/04/21 05:46:31;;;;;;;10.85;3.92;;;;;;;;;;5053813;28;20032;-69
2022/04/21 05:48:57;;;;;;;9.68;3.28;;;;;;;;;;5053389;28;20111;-69
2022/04/21 05:51:23;;;;;;;6.68;3.20;;;;;;;;;;5053699;28;20112;-69
2022/04/21 05:53:49;;;;;;;4.95;3.67;;;;;;;;;;5046954;28;20048;-68
2022/04/21 05:56:15;;;;;;;5.88;3.03;;;;;;;;;;5048085;28;20043;-68
2022/04/21 05:58:41;;;;;;;6.10;3.70;;;;;;;;;;5053460;28;20126;-68
2022/04/21 06:01:07;;;;;;;5.18;3.60;;;;;;;;;;5053452;28;20465;-69
2022/04/21 06:03:35;;;;;;;7.22;3.42;;;;;;;;;;5066283;28;20083;-69
2022/04/21 06:06:00;;;;;;;6.43;2.67;;;;;;;;;;5059168;28;20428;-69
2022/04/21 06:08:26;;;;;;;6.05;3.28;;;;;;;;;;5047364;28;20024;-68
2022/04/21 06:10:51;;;;;;;6.95;3.15;;;;;;;;;;5049001;28;20044;-70
2022/04/21 06:13:16;;;;;;;8.23;3.63;;;;;;;;;;5055358;28;20025;-68
2022/04/21 06:15:43;;;;;;;4.53;2.92;;;;;;;;;;5057326;28;20037;-69
2022/04/21 06:18:09;;;;;;;4.97;3.45;;;;;;;;;;5068240;28;20020;-68
2022/04/21 06:20:35;;;;;;;4.22;2.65;;;;;;;;;;5070055;28;20032;-70
2022/04/21 06:23:00;;;;;;;3.75;3.17;;;;;;;;;;5068999;28;20024;-69
2022/04/21 06:25:25;;;;;;;3.95;3.10;;;;;;;;;;5051744;28;20030;-71
2022/04/21 06:27:51;;;;;;;6.20;2.95;;;;;;;;;;5029784;28;20028;-68
2022/04/21 06:30:17;;;;;;;4.70;3.28;;;;;;;;;;5028882;28;20029;-69
2022/04/21 06:32:43;;;;;;;5.60;3.55;;;;;;;;;;5029883;28;20340;-68
2022/04/21 06:35:08;;;;;;;5.47;3.30;;;;;;;;;;5029065;28;20285;-69
2022/04/21 06:37:35;;;;;;;5.95;2.95;;;;;;;;;;5029326;28;20037;-69
2022/04/21 06:40:01;;;;;;;7.47;3.40;;;;;;;;;;5028689;28;20025;-69
2022/04/21 06:42:26;;;;;;;6.22;2.80;;;;;;;;;;5041148;28;20132;-69
2022/04/21 06:50:19;;;;;;;9.80;3.80;;;;;;;;;;5052087;28;20087;-69
2022/04/21 06:52:45;;;;;;;7.60;3.20;;;;;;;;;;5044821;28;20482;-69
2022/04/21 06:55:10;;;;;;;9.15;2.97;;;;;;;;;;5057056;28;20020;-69
2022/04/21 06:57:35;;;;;;;10.95;3.35;;;;;;;;;;5060773;28;20024;-70
2022/04/21 07:00:01;;;;;;;7.57;2.72;;;;;;;;;;5048772;28;20418;-69
2022/04/21 07:02:31;;;;;;;6.00;2.97;;;;;;;;;;5049568;28;20035;-69
2022/04/21 07:05:03;;;;;;;6.13;3.30;;;;;;;;;;5052682;28;20087;-70
2022/04/21 07:07:28;;;;;;;7.07;3.70;;;;;;;;;;5049551;28;20035;-69
2022/04/21 07:09:56;;;;;;;7.00;3.28;;;;;;;;;;5056186;28;20409;-69
2022/04/21 07:12:25;;;;;;;8.18;3.05;;;;;;;;;;5060233;28;20454;-69
2022/04/21 07:14:51;;;;;;;9.05;3.10;;;;;;;;;;5043283;28;20033;-70
2022/04/21 07:17:16;;;;;;;6.25;3.00;;;;;;;;;;5045371;28;20086;-69
2022/04/21 07:19:41;;;;;;;6.20;2.53;;;;;;;;;;5044349;28;20493;-68
2022/04/21 07:22:07;;;;;;;4.00;2.60;;;;;;;;;;5055841;28;20036;-69
2022/04/21 07:24:32;;;;;;;7.32;2.88;;;;;;;;;;5049491;28;20040;-69
2022/04/21 07:26:57;;;;;;;9.10;4.25;;;;;;;;;;5031859;28;20033;-68
2022/04/21 07:29:22;;;;;;;7.03;3.75;;;;;;;;;;5024832;28;20037;-68
2022/04/21 07:31:48;;;;;;;6.90;3.30;;;;;;;;;;5024610;28;20025;-69
2022/04/21 07:34:13;;;;;;;5.20;3.05;;;;;;;;;;5032074;28;20298;-70
2022/04/21 07:36:39;;;;;;;5.60;3.10;;;;;;;;;;5052904;28;20272;-69
2022/04/21 07:39:05;;;;;;;3.95;2.80;;;;;;;;;;5051777;28;20056;-69
2022/04/21 07:41:30;;;;;;;6.40;2.50;;;;;;;;;;5057016;28;20212;-68
2022/04/21 07:43:56;;;;;;;5.32;2.53;;;;;;;;;;5049660;28;20028;-69
2022/04/21 07:46:21;;;;;;;3.50;2.70;;;;;;;;;;5056086;28;20119;-69
2022/04/21 07:51:30;;;;;;;3.42;2.50;;;;;;;;;;5043299;28;20124;-70
2022/04/21 07:53:55;;;;;;;5.78;2.50;;;;;;;;;;5052708;28;20107;-68
2022/04/21 07:56:21;;;;;;;5.00;2.55;;;;;;;;;;5045503;28;20040;-68
2022/04/21 07:58:46;;;;;;;5.72;2.80;;;;;;;;;;5043301;28;20013;-69
2022/04/21 08:01:12;;;;;;;6.78;2.60;;;;;;;;;;5044178;28;20052;-69
2022/04/21 08:03:37;;;;;;;4.32;2.60;;;;;;;;;;5044988;28;20027;-68
2022/04/21 08:06:06;;;;;;;4.07;2.30;;;;;;;;;;5043783;28;20029;-69
2022/04/21 08:08:32;;;;;;;4.57;2.45;;;;;;;;;;5043283;28;20025;-69
2022/04/21 08:10:57;;;;;;;6.05;2.13;;;;;;;;;;5044958;28;20442;-69
2022/04/21 08:13:24;;;;;;;4.07;2.10;;;;;;;;;;5043440;28;20513;-68
2022/04/21 08:15:50;;;;;;;4.05;2.38;;;;;;;;;;5050493;28;20540;-69
2022/04/21 08:18:15;;;;;;;6.25;2.47;;;;;;;;;;5052585;28;20020;-68
2022/04/21 08:20:41;;;;;;;2.30;2.10;;;;;;;;;;5051727;28;20040;-69
2022/04/21 08:23:06;;;;;;;4.80;2.63;;;;;;;;;;5043273;28;20029;-69
2022/04/21 08:33:44;;;;;;;5.50;2.20;;;;;;;;;;5050384;28;20070;-68
2022/04/21 08:36:09;;;;;;;7.85;3.50;;;;;;;;;;5051426;28;20052;-68
2022/04/21 08:38:34;;;;;;;6.75;1.98;;;;;;;;;;5049282;28;20048;-69
2022/04/21 08:41:05;;;;;;;7.70;3.05;;;;;;;;;;5060100;28;20474;-70
2022/04/21 08:43:33;;;;;;;5.20;2.20;;;;;;;;;;5057097;28;20024;-71
2022/04/21 08:45:59;;;;;;;5.38;2.40;;;;;;;;;;5043865;28;20115;-72
2022/04/21 08:48:25;;;;;;;6.07;2.20;;;;;;;;;;5049077;28;20029;-73
2022/04/21 08:50:51;;;;;;;3.30;2.00;;;;;;;;;;5041992;28;20025;-70
2022/04/21 08:53:19;;;;;;;4.28;2.20;;;;;;;;;;5041663;28;20031;-71
2022/04/21 08:55:45;;;;;;;4.80;2.00;;;;;;;;;;5041779;28;20049;-72
2022/04/21 08:58:13;;;;;;;4.15;2.40;;;;;;;;;;5044709;28;20051;-69
2022/04/21 09:00:40;;;;;;;2.72;1.88;;;;;;;;;;5054612;28;20518;-69
2022/04/21 09:03:08;;;;;;;2.88;2.03;;;;;;;;;;5062271;28;20090;-70
2022/04/21 09:05:33;;;;;;;3.47;1.95;;;;;;;;;;5054717;28;20494;-68
2022/04/21 09:07:59;;;;;;;2.95;1.60;;;;;;;;;;5039630;28;20566;-68
2022/04/21 09:10:28;;;;;;;2.35;1.70;;;;;;;;;;5041843;28;20074;-69
2022/04/21 09:13:02;;;;;;;3.15;1.80;;;;;;;;;;5056325;28;20051;-69
2022/04/21 09:15:31;;;;;;;3.83;1.80;;;;;;;;;;5041399;28;20032;-69
2022/04/21 09:17:59;;;;;;;4.38;1.83;;;;;;;;;;5041784;28;20060;-71
2022/04/21 09:20:33;;;;;;;2.40;1.92;;;;;;;;;;5043094;28;20059;-69
2022/04/21 09:23:00;;;;;;;4.13;1.98;;;;;;;;;;5050139;28;20039;-77
2022/04/21 09:25:28;;;;;;;3.55;1.98;;;;;;;;;;5050543;28;20096;-71
2022/04/21 09:27:54;;;;;;;12.73;11.35;;;;;;;;;;5054138;28;20028;-69
2022/04/21 09:30:20;;;;;;;6.72;5.97;;;;;;;;;;5063759;28;20020;-69
2022/04/21 09:32:59;;;;;;;4.68;2.72;;;;;;;;;;5044602;28;20119;-68
2022/04/21 09:35:33;;;;;;;3.10;2.20;;;;;;;;;;5049337;28;20055;-69
2022/04/21 09:38:01;;;;;;;3.00;2.80;;;;;;;;;;5049317;28;20024;-70
2022/04/21 09:40:27;;;;;;;2.38;1.50;;;;;;;;;;5056531;28;20036;-71
2022/04/21 09:43:01;;;;;;;3.92;1.65;;;;;;;;;;5063023;28;20752;-69
2022/04/21 09:48:21;;;;;;;1.75;1.40;;;;;;;;;;5045226;28;20074;-72
2022/04/21 09:50:51;;;;;;;3.57;1.63;;;;;;;;;;5054904;28;20031;-69
2022/04/21 09:53:24;;;;;;;1.90;1.60;;;;;;;;;;5062036;28;20024;-69
2022/04/21 09:55:51;;;;;;;2.70;1.92;;;;;;;;;;5049294;28;20167;-69
2022/04/21 09:58:17;;;;;;;3.25;1.27;;;;;;;;;;5041445;28;20104;-70
2022/04/21 10:00:44;;;;;;;3.75;1.80;;;;;;;;;;5037873;28;20469;-69
2022/04/21 10:03:10;;;;;;;1.52;1.40;;;;;;;;;;5039936;28;20053;-72
2022/04/21 10:05:37;;;;;;;3.83;1.85;;;;;;;;;;5042214;28;20478;-71
2022/04/21 10:08:05;;;;;;;2.28;1.70;;;;;;;;;;5042730;28;20032;-67
2022/04/21 10:10:32;;;;;;;3.05;1.98;;;;;;;;;;5042348;28;20115;-75
2022/04/21 10:12:59;;;;;;;2.22;1.50;;;;;;;;;;5044394;28;20032;-69
2022/04/21 10:15:26;;;;;;;1.75;1.30;;;;;;;;;;5045962;28;20108;-70
2022/04/21 10:17:51;;;;;;;2.15;1.70;;;;;;;;;;5056246;28;20021;-70
2022/04/21 10:20:17;;;;;;;2.53;1.60;;;;;;;;;;5064060;28;20035;-69
2022/04/21 10:22:43;;;;;;;4.78;1.90;;;;;;;;;;5045262;28;20090;-69
2022/04/21 10:25:08;;;;;;;3.28;1.63;;;;;;;;;;5042187;28;20194;-72
2022/04/21 10:27:42;;;;;;;1.48;1.30;;;;;;;;;;5044287;28;20554;-71
2022/04/21 10:30:22;;;;;;;2.33;1.55;;;;;;;;;;5043624;28;20033;-70
2022/04/21 10:32:59;;;;;;;3.15;1.60;;;;;;;;;;5043986;28;20024;-69
2022/04/21 10:35:24;;;;;;;2.45;1.40;;;;;;;;;;5044442;28;20025;-70
2022/04/21 10:38:25;;;;;;;1.80;1.20;;;;;;;;;;5044207;28;20105;-70
2022/04/21 10:40:58;;;;;;;4.43;2.05;;;;;;;;;;5002539;28;20263;-68
2022/04/21 10:44:00;;;;;;;2.78;1.55;;;;;;;;;;5039891;28;20795;-70
2022/04/21 10:46:31;;;;;;;2.70;2.17;;;;;;;;;;5043266;28;20116;-70
2022/04/21 10:48:58;;;;;;;3.28;1.55;;;;;;;;;;5044601;28;20017;-70
2022/04/21 10:51:41;;;;;;;2.35;1.65;;;;;;;;;;5046063;28;20048;-71
2022/04/21 11:00:08;;;;;;;2.33;1.70;;;;;;;;;;5044262;28;20151;-69
2022/04/21 11:02:38;;;;;;;4.97;2.90;;;;;;;;;;5044793;28;20116;-69
2022/04/21 11:05:34;;;;;;;2.90;1.60;;;;;;;;;;5045621;28;20033;-72
2022/04/21 11:08:01;;;;;;;1.85;1.45;;;;;;;;;;5044369;28;20025;-69
2022/04/21 11:10:42;;;;;;;3.72;1.80;;;;;;;;;;5044213;28;20148;-69
2022/04/21 11:13:17;;;;;;;2.90;2.05;;;;;;;;;;5044536;28;20428;-68
2022/04/21 11:15:50;;;;;;;3.53;1.85;;;;;;;;;;5048152;28;20059;-68
2022/04/21 11:18:28;;;;;;;4.63;1.70;;;;;;;;;;5044811;28;20059;-69
2022/04/21 11:21:19;;;;;;;1.92;1.80;;;;;;;;;;5044210;28;20074;-71
2022/04/21 11:23:44;;;;;;;2.27;1.83;;;;;;;;;;5044959;28;20098;-69
2022/04/21 11:26:11;;;;;;;2.10;1.90;;;;;;;;;;5042515;28;20029;-71
2022/04/21 11:28:42;;;;;;;1.60;1.50;;;;;;;;;;5043658;28;20691;-70
2022/04/21 11:31:07;;;;;;;2.85;1.90;;;;;;;;;;5044029;28;20070;-70
2022/04/21 11:33:33;;;;;;;2.70;1.50;;;;;;;;;;5043425;28;20032;-70
2022/04/21 11:36:09;;;;;;;3.58;1.77;;;;;;;;;;5043784;28;20017;-72
2022/04/21 11:38:45;;;;;;;4.00;1.90;;;;;;;;;;5042035;28;20486;-70
2022/04/21 11:41:11;;;;;;;2.30;1.55;;;;;;;;;;5043790;28;20078;-68
2022/04/21 11:43:45;;;;;;;2.00;1.30;;;;;;;;;;5043506;28;20707;-68
2022/04/21 11:46:12;;;;;;;4.47;1.70;;;;;;;;;;5051245;28;20021;-69
2022/04/21 11:48:42;;;;;;;4.28;1.60;;;;;;;;;;5056002;28;20036;-68
2022/04/21 11:51:12;;;;;;;4.55;1.50;;;;;;;;;;5051764;28;20458;-69
2022/04/21 11:53:41;;;;;;;2.78;1.50;;;;;;;;;;5063024;28;20024;-69
2022/04/21 11:56:11;;;;;;;2.70;1.50;;;;;;;;;;5067680;28;20755;-70
2022/04/21 11:58:41;;;;;;;1.98;1.42;;;;;;;;;;5066678;28;20021;-69
2022/04/21 12:06:52;;;;;;;1.92;1.30;;;;;;;;;;5067499;28;20038;-68
2022/04/21 12:09:25;;;;;;;2.50;1.63;;;;;;;;;;5067539;28;20024;-68
2022/04/21 12:11:55;;;;;;;2.88;1.60;;;;;;;;;;5064188;28;20186;-69
2022/04/21 12:14:21;;;;;;;3.05;1.70;;;;;;;;;;5047589;28;20553;-68
2022/04/21 12:16:52;;;;;;;2.25;1.40;;;;;;;;;;5047180;28;20021;-71
2022/04/21 12:19:38;;;;;;;4.22;2.15;;;;;;;;;;5046419;28;20142;-75
2022/04/21 12:22:08;;;;;;;3.72;1.75;;;;;;;;;;5046314;28;20036;-68
2022/04/21 12:24:36;;;;;;;1.90;1.48;;;;;;;;;;5047288;28;20094;-67
2022/04/21 12:27:05;;;;;;;4.10;1.55;;;;;;;;;;5046981;28;20059;-67
2022/04/21 12:29:31;;;;;;;2.83;1.58;;;;;;;;;;5046465;28;20402;-67
2022/04/21 12:32:01;;;;;;;3.10;1.70;;;;;;;;;;5042923;28;20060;-69
2022/04/21 12:34:27;;;;;;;2.45;1.55;;;;;;;;;;5046907;28;20051;-67
2022/04/21 12:37:02;;;;;;;2.67;1.80;;;;;;;;;;5046372;28;20044;-69
2022/04/21 12:39:29;;;;;;;2.22;1.30;;;;;;;;;;5057065;28;20017;-68
2022/04/21 12:41:56;;;;;;;2.30;1.40;;;;;;;;;;5067181;28;20040;-70
2022/04/21 12:44:25;;;;;;;2.47;1.60;;;;;;;;;;5043667;28;20356;-67
2022/04/21 12:47:05;;;;;;;3.28;1.35;;;;;;;;;;5045475;28;20071;-68
2022/04/21 12:49:55;;;;;;;2.83;1.80;;;;;;;;;;5045925;28;20104;-67
2022/04/21 12:52:32;;;;;;;2.13;1.48;;;;;;;;;;5040887;28;20027;-67
2022/04/21 12:54:59;;;;;;;3.20;1.58;;;;;;;;;;5051338;28;20036;-69
2022/04/21 12:57:24;;;;;;;2.58;1.30;;;;;;;;;;5053817;28;20079;-68
2022/04/21 12:59:50;;;;;;;3.88;1.27;;;;;;;;;;5050846;28;20048;-68
2022/04/21 13:02:18;;;;;;;7.82;1.85;;;;;;;;;;5046025;28;20453;-67
2022/04/21 13:04:43;;;;;;;4.25;1.40;;;;;;;;;;5051663;28;20732;-69
2022/04/21 13:07:09;;;;;;;3.05;1.67;;;;;;;;;;5054024;28;20032;-69
2022/04/21 13:09:34;;;;;;;1.88;1.30;;;;;;;;;;5046758;28;20025;-69
2022/04/21 13:12:00;;;;;;;2.58;1.55;;;;;;;;;;5045880;28;20478;-67
2022/04/21 13:14:25;;;;;;;4.35;1.65;;;;;;;;;;5045394;28;20021;-68
2022/04/21 13:16:51;;;;;;;2.65;1.70;;;;;;;;;;5054578;28;20021;-68
2022/04/21 13:19:16;;;;;;;3.80;1.85;;;;;;;;;;5055425;28;20020;-67
2022/04/21 13:21:55;;;;;;;3.15;1.60;;;;;;;;;;5050100;28;20406;-69
2022/04/21 13:24:22;;;;;;;3.33;1.40;;;;;;;;;;5047851;28;20711;-69
2022/04/21 13:26:47;;;;;;;2.78;1.40;;;;;;;;;;5045699;28;20061;-68
2022/04/21 13:29:13;;;;;;;1.95;1.30;;;;;;;;;;5055718;28;20539;-68
2022/04/21 13:34:22;;;;;;;5.82;1.50;;;;;;;;;;5051900;28;20386;-67
2022/04/21 13:36:47;;;;;;;2.65;1.45;;;;;;;;;;5050393;28;20028;-69
2022/04/21 13:39:13;;;;;;;4.05;1.30;;;;;;;;;;5045796;28;20021;-68
2022/04/21 13:41:38;;;;;;;2.17;1.42;;;;;;;;;;5046639;28;20021;-67
2022/04/21 13:44:04;;;;;;;1.70;1.38;;;;;;;;;;5046207;28;20597;-67
2022/04/21 13:46:29;;;;;;;1.50;1.30;;;;;;;;;;5046094;28;20021;-69
2022/04/21 13:48:59;;;;;;;3.67;1.40;;;;;;;;;;5045208;28;20029;-66
2022/04/21 13:51:24;;;;;;;4.05;1.05;;;;;;;;;;5056966;28;20127;-68
2022/04/21 13:53:51;;;;;;;2.92;1.33;;;;;;;;;;5053329;28;20302;-68
2022/04/21 13:56:17;;;;;;;6.68;1.45;;;;;;;;;;5057723;28;20052;-68
2022/04/21 13:58:42;;;;;;;2.92;1.95;;;;;;;;;;5064934;28;20063;-69
2022/04/21 14:01:07;;;;;;;3.45;1.58;;;;;;;;;;5052724;28;20075;-68
2022/04/21 14:03:36;;;;;;;2.22;1.30;;;;;;;;;;5047111;28;20021;-68
2022/04/21 14:06:05;;;;;;;1.98;1.27;;;;;;;;;;5060151;28;20089;-67
2022/04/21 14:08:30;;;;;;;6.18;1.40;;;;;;;;;;5056596;28;20052;-68
2022/04/21 14:10:57;;;;;;;3.35;1.25;;;;;;;;;;5065596;28;20028;-68
2022/04/21 14:13:22;;;;;;;3.30;1.42;;;;;;;;;;5057219;28;20482;-68
2022/04/21 14:15:47;;;;;;;4.25;1.30;;;;;;;;;;5065904;28;20103;-68
2022/04/21 14:18:12;;;;;;;2.67;1.17;;;;;;;;;;5057430;28;20033;-68
2022/04/21 14:20:38;;;;;;;2.03;1.20;;;;;;;;;;5064040;28;20020;-70
2022/04/21 14:23:03;;;;;;;3.25;1.30;;;;;;;;;;5069531;28;20478;-68
2022/04/21 14:25:28;;;;;;;2.55;1.38;;;;;;;;;;5056577;28;20129;-68
2022/04/21 14:27:54;;;;;;;3.13;1.10;;;;;;;;;;5060758;28;20119;-68
2022/04/21 14:30:19;;;;;;;2.13;1.30;;;;;;;;;;5069684;28;20511;-68
2022/04/21 14:32:44;;;;;;;2.55;1.30;;;;;;;;;;5069007;28;20185;-68
2022/04/21 14:35:10;;;;;;;2.45;1.08;;;;;;;;;;5066958;28;20036;-68
2022/04/21 14:45:59;;;;;;;1.80;1.30;;;;;;;;;;5026728;28;20126;-76
2022/04/21 14:48:25;;;;;;;3.92;1.58;;;;;;;;;;5021657;28;20492;-76
2022/04/21 14:50:51;;;;;;;2.03;1.40;;;;;;;;;;5029583;28;20030;-75
2022/04/21 14:53:16;;;;;;;2.10;1.23;;;;;;;;;;5028694;28;20393;-76
2022/04/21 14:55:41;;;;;;;1.42;1.20;;;;;;;;;;5028859;28;20478;-71
2022/04/21 14:58:07;;;;;;;1.27;1.02;;;;;;;;;;5029120;28;20029;-71
2022/04/21 15:00:32;;;;;;;3.78;1.30;;;;;;;;;;5028336;28;20061;-73
2022/04/21 15:02:58;;;;;;;2.72;1.27;;;;;;;;;;5025771;28;20017;-75
2022/04/21 15:05:23;;;;;;;1.33;1.02;;;;;;;;;;5028576;28;20025;-74
2022/04/21 15:07:48;;;;;;;3.92;1.73;;;;;;;;;;5028033;28;20030;-70
2022/04/21 15:10:14;;;;;;;4.13;1.45;;;;;;;;;;5030959;28;20025;-75
2022/04/21 15:12:39;;;;;;;2.88;1.25;;;;;;;;;;5031123;28;20079;-76
2022/04/21 15:15:07;;;;;;;1.25;1.00;;;;;;;;;;5038796;28;20072;-75
2022/04/21 15:17:32;;;;;;;1.63;1.23;;;;;;;;;;5032466;28;20030;-74
2022/04/21 15:19:57;;;;;;;4.10;1.55;;;;;;;;;;5032297;28;20025;-77
2022/04/21 15:22:23;;;;;;;1.92;1.20;;;;;;;;;;5032087;28;20022;-70
2022/04/21 15:24:52;;;;;;;2.50;1.40;;;;;;;;;;5031649;28;20053;-75
2022/04/21 15:27:18;;;;;;;1.50;1.23;;;;;;;;;;5032285;28;20026;-76
2022/04/21 15:29:43;;;;;;;1.60;1.20;;;;;;;;;;5031589;28;20025;-73
2022/04/21 15:32:09;;;;;;;3.78;1.30;;;;;;;;;;5031898;28;20025;-73
2022/04/21 15:34:34;;;;;;;3.40;1.27;;;;;;;;;;5031910;28;20087;-72
2022/04/21 15:37:00;;;;;;;3.83;1.27;;;;;;;;;;5031777;28;20026;-74
2022/04/21 15:39:26;;;;;;;2.15;1.30;;;;;;;;;;5031394;28;20063;-75
2022/04/21 15:41:51;;;;;;;1.38;1.20;;;;;;;;;;5031837;28;20033;-72
2022/04/21 15:44:16;;;;;;;3.83;1.90;;;;;;;;;;5031393;28;20546;-71
2022/04/21 15:46:42;;;;;;;2.00;1.20;;;;;;;;;;5031467;28;20035;-74
2022/04/21 15:49:09;;;;;;;1.17;1.08;;;;;;;;;;5030955;28;20017;-72
2022/04/21 15:51:35;;;;;;;1.50;1.30;;;;;;;;;;5031444;28;20493;-71